sensor_id;sensor_type;location;lat;lon;timestamp;P1;durP1;ratioP1;P2;durP2;ratioP2
59239;SDS011;45010;53.640;10.578;2023-05-29T00:01:27;1.98;;;1.10;;
59239;SDS011;45010;53.640;10.578;2023-05-29T00:04:28;2.22;;;1.10;;
59239;SDS011;45010;53.640;10.578;2023-05-29T00:07:31;1.23;;;1.13;;
59239;SDS011;45010;53.640;10.578;2023-05-29T00:10:35;2.97;;;1.00;;
59239;SDS011;45010;53.640;10.578;2023-05-29T00:13:37;2.75;;;0.90;;
59239;SDS011;45010;53.640;10.578;2023-05-29T00:16:37;1.40;;;1.10;;
59239;SDS011;45010;53.640;10.578;2023-05-29T00:19:38;2.17;;;1.20;;
59239;SDS011;45010;53.640;10.578;2023-05-29T00:22:38;2.10;;;1.20;;
59239;SDS011;45010;53.640;10.578;2023-05-29T00:25:39;3.83;;;1.10;;
59239;SDS011;45010;53.640;10.578;2023-05-29T00:28:40;1.90;;;1.20;;
59239;SDS011;45010;53.640;10.578;2023-05-29T00:31:40;1.85;;;1.02;;
59239;SDS011;45010;53.640;10.578;2023-05-29T00:34:40;2.28;;;1.00;;
59239;SDS011;45010;53.640;10.578;2023-05-29T00:37:41;2.28;;;1.13;;
59239;SDS011;45010;53.640;10.578;2023-05-29T00:40:41;1.67;;;0.90;;
59239;SDS011;45010;53.640;10.578;2023-05-29T00:43:42;2.53;;;0.93;;
59239;SDS011;45010;53.640;10.578;2023-05-29T00:46:42;2.17;;;1.20;;
59239;SDS011;45010;53.640;10.578;2023-05-29T00:49:43;3.28;;;1.00;;
59239;SDS011;45010;53.640;10.578;2023-05-29T00:52:44;2.25;;;1.10;;
59239;SDS011;45010;53.640;10.578;2023-05-29T00:55:45;1.73;;;1.10;;
59239;SDS011;45010;53.640;10.578;2023-05-29T00:58:46;2.25;;;1.00;;
59239;SDS011;45010;53.640;10.578;2023-05-29T01:01:52;2.20;;;1.10;;
59239;SDS011;45010;53.640;10.578;2023-05-29T01:04:54;1.95;;;1.05;;
59239;SDS011;45010;53.640;10.578;2023-05-29T01:07:54;2.15;;;0.98;;
59239;SDS011;45010;53.640;10.578;2023-05-29T01:10:56;2.13;;;1.00;;
59239;SDS011;45010;53.640;10.578;2023-05-29T01:14:05;1.50;;;0.90;;
59239;SDS011;45010;53.640;10.578;2023-05-29T01:17:11;1.88;;;1.00;;
59239;SDS011;45010;53.640;10.578;2023-05-29T01:26:54;2.17;;;1.10;;
59239;SDS011;45010;53.640;10.578;2023-05-29T01:30:00;1.80;;;0.90;;
59239;SDS011;45010;53.640;10.578;2023-05-29T01:33:03;2.67;;;1.08;;
59239;SDS011;45010;53.640;10.578;2023-05-29T01:36:03;2.33;;;0.93;;
59239;SDS011;45010;53.640;10.578;2023-05-29T01:39:04;2.33;;;1.20;;
59239;SDS011;45010;53.640;10.578;2023-05-29T01:42:05;2.15;;;0.98;;
59239;SDS011;45010;53.640;10.578;2023-05-29T01:45:07;1.95;;;1.08;;
59239;SDS011;45010;53.640;10.578;2023-05-29T01:48:08;1.50;;;1.13;;
59239;SDS011;45010;53.640;10.578;2023-05-29T01:51:10;1.92;;;1.20;;
59239;SDS011;45010;53.640;10.578;2023-05-29T01:54:11;2.95;;;1.05;;
59239;SDS011;45010;53.640;10.578;2023-05-29T01:57:11;1.80;;;1.15;;
59239;SDS011;45010;53.640;10.578;2023-05-29T02:00:13;1.42;;;0.90;;
59239;SDS011;45010;53.640;10.578;2023-05-29T02:03:16;2.80;;;1.30;;
59239;SDS011;45010;53.640;10.578;2023-05-29T02:06:16;3.22;;;1.30;;
59239;SDS011;45010;53.640;10.578;2023-05-29T02:09:17;2.20;;;0.98;;
59239;SDS011;45010;53.640;10.578;2023-05-29T02:12:18;1.98;;;1.00;;
59239;SDS011;45010;53.640;10.578;2023-05-29T02:15:18;2.30;;;0.90;;
59239;SDS011;45010;53.640;10.578;2023-05-29T02:18:18;1.80;;;0.98;;
59239;SDS011;45010;53.640;10.578;2023-05-29T02:21:19;2.70;;;1.10;;
59239;SDS011;45010;53.640;10.578;2023-05-29T02:24:19;2.38;;;1.00;;
59239;SDS011;45010;53.640;10.578;2023-05-29T02:27:20;3.10;;;1.10;;
59239;SDS011;45010;53.640;10.578;2023-05-29T02:30:20;1.65;;;0.85;;
59239;SDS011;45010;53.640;10.578;2023-05-29T02:33:20;1.73;;;1.05;;
59239;SDS011;45010;53.640;10.578;2023-05-29T02:36:20;2.40;;;1.10;;
59239;SDS011;45010;53.640;10.578;2023-05-29T02:39:21;1.67;;;0.95;;
59239;SDS011;45010;53.640;10.578;2023-05-29T02:42:21;2.10;;;1.00;;
59239;SDS011;45010;53.640;10.578;2023-05-29T02:45:21;2.58;;;1.23;;
59239;SDS011;45010;53.640;10.578;2023-05-29T02:48:22;2.13;;;1.10;;
59239;SDS011;45010;53.640;10.578;2023-05-29T02:51:22;2.70;;;1.13;;
59239;SDS011;45010;53.640;10.578;2023-05-29T02:54:23;1.63;;;0.75;;
59239;SDS011;45010;53.640;10.578;2023-05-29T02:57:24;1.27;;;0.73;;
59239;SDS011;45010;53.640;10.578;2023-05-29T03:00:25;2.35;;;1.05;;
59239;SDS011;45010;53.640;10.578;2023-05-29T03:03:26;2.10;;;0.90;;
59239;SDS011;45010;53.640;10.578;2023-05-29T03:06:26;1.88;;;0.80;;
59239;SDS011;45010;53.640;10.578;2023-05-29T03:09:26;1.70;;;0.80;;
59239;SDS011;45010;53.640;10.578;2023-05-29T03:12:27;2.10;;;1.00;;
59239;SDS011;45010;53.640;10.578;2023-05-29T03:15:27;2.58;;;0.85;;
59239;SDS011;45010;53.640;10.578;2023-05-29T03:18:28;2.38;;;0.95;;
59239;SDS011;45010;53.640;10.578;2023-05-29T03:21:28;2.33;;;1.10;;
59239;SDS011;45010;53.640;10.578;2023-05-29T03:24:28;2.38;;;0.90;;
59239;SDS011;45010;53.640;10.578;2023-05-29T03:27:29;2.78;;;0.93;;
59239;SDS011;45010;53.640;10.578;2023-05-29T03:30:30;1.58;;;1.08;;
59239;SDS011;45010;53.640;10.578;2023-05-29T03:33:31;2.65;;;0.80;;
59239;SDS011;45010;53.640;10.578;2023-05-29T03:36:31;2.30;;;1.00;;
59239;SDS011;45010;53.640;10.578;2023-05-29T03:39:32;2.47;;;0.88;;
59239;SDS011;45010;53.640;10.578;2023-05-29T03:42:32;1.50;;;0.68;;
59239;SDS011;45010;53.640;10.578;2023-05-29T03:45:32;1.88;;;0.70;;
59239;SDS011;45010;53.640;10.578;2023-05-29T03:48:32;2.15;;;0.90;;
59239;SDS011;45010;53.640;10.578;2023-05-29T03:51:33;1.88;;;0.90;;
59239;SDS011;45010;53.640;10.578;2023-05-29T03:54:33;2.38;;;0.98;;
59239;SDS011;45010;53.640;10.578;2023-05-29T03:57:34;2.50;;;1.00;;
59239;SDS011;45010;53.640;10.578;2023-05-29T04:00:34;2.30;;;1.00;;
59239;SDS011;45010;53.640;10.578;2023-05-29T04:03:35;2.17;;;0.90;;
59239;SDS011;45010;53.640;10.578;2023-05-29T04:06:35;2.08;;;1.20;;
59239;SDS011;45010;53.640;10.578;2023-05-29T04:09:38;2.55;;;1.10;;
59239;SDS011;45010;53.640;10.578;2023-05-29T04:12:39;2.38;;;1.10;;
59239;SDS011;45010;53.640;10.578;2023-05-29T04:15:39;1.85;;;0.70;;
59239;SDS011;45010;53.640;10.578;2023-05-29T04:18:39;1.92;;;0.90;;
59239;SDS011;45010;53.640;10.578;2023-05-29T04:21:40;1.73;;;1.02;;
59239;SDS011;45010;53.640;10.578;2023-05-29T04:24:40;2.00;;;1.27;;
59239;SDS011;45010;53.640;10.578;2023-05-29T04:27:41;1.58;;;1.20;;
59239;SDS011;45010;53.640;10.578;2023-05-29T04:30:42;2.55;;;1.08;;
59239;SDS011;45010;53.640;10.578;2023-05-29T04:33:42;2.08;;;1.00;;
59239;SDS011;45010;53.640;10.578;2023-05-29T04:36:45;1.98;;;0.80;;
59239;SDS011;45010;53.640;10.578;2023-05-29T04:39:46;2.22;;;1.05;;
59239;SDS011;45010;53.640;10.578;2023-05-29T04:42:46;1.80;;;0.95;;
59239;SDS011;45010;53.640;10.578;2023-05-29T04:45:46;1.80;;;1.25;;
59239;SDS011;45010;53.640;10.578;2023-05-29T04:48:48;2.17;;;0.80;;
59239;SDS011;45010;53.640;10.578;2023-05-29T04:51:52;1.75;;;0.80;;
59239;SDS011;45010;53.640;10.578;2023-05-29T04:54:56;2.55;;;0.82;;
59239;SDS011;45010;53.640;10.578;2023-05-29T04:57:56;1.98;;;0.80;;
59239;SDS011;45010;53.640;10.578;2023-05-29T05:00:57;1.52;;;1.10;;
59239;SDS011;45010;53.640;10.578;2023-05-29T05:04:00;1.95;;;0.80;;
59239;SDS011;45010;53.640;10.578;2023-05-29T05:07:00;2.53;;;1.00;;
59239;SDS011;45010;53.640;10.578;2023-05-29T05:10:05;2.47;;;0.80;;
59239;SDS011;45010;53.640;10.578;2023-05-29T05:13:06;2.30;;;1.00;;
59239;SDS011;45010;53.640;10.578;2023-05-29T05:16:07;2.00;;;0.88;;
59239;SDS011;45010;53.640;10.578;2023-05-29T05:19:07;1.77;;;0.70;;
59239;SDS011;45010;53.640;10.578;2023-05-29T05:22:07;2.35;;;1.00;;
59239;SDS011;45010;53.640;10.578;2023-05-29T05:25:08;3.83;;;1.05;;
59239;SDS011;45010;53.640;10.578;2023-05-29T05:28:09;2.58;;;0.80;;
59239;SDS011;45010;53.640;10.578;2023-05-29T05:31:10;1.58;;;0.98;;
59239;SDS011;45010;53.640;10.578;2023-05-29T05:34:11;4.72;;;0.90;;
59239;SDS011;45010;53.640;10.578;2023-05-29T05:37:11;1.80;;;1.00;;
59239;SDS011;45010;53.640;10.578;2023-05-29T05:40:12;3.33;;;0.93;;
59239;SDS011;45010;53.640;10.578;2023-05-29T05:43:12;3.15;;;1.25;;
59239;SDS011;45010;53.640;10.578;2023-05-29T05:46:12;2.65;;;1.05;;
59239;SDS011;45010;53.640;10.578;2023-05-29T05:49:13;4.10;;;1.10;;
59239;SDS011;45010;53.640;10.578;2023-05-29T05:52:13;7.93;;;1.30;;
59239;SDS011;45010;53.640;10.578;2023-05-29T05:55:14;6.85;;;0.95;;
59239;SDS011;45010;53.640;10.578;2023-05-29T05:58:14;4.85;;;1.10;;
59239;SDS011;45010;53.640;10.578;2023-05-29T06:01:14;5.15;;;1.25;;
59239;SDS011;45010;53.640;10.578;2023-05-29T06:04:15;5.13;;;1.52;;
59239;SDS011;45010;53.640;10.578;2023-05-29T06:07:15;6.05;;;1.30;;
59239;SDS011;45010;53.640;10.578;2023-05-29T06:10:15;5.47;;;1.58;;
59239;SDS011;45010;53.640;10.578;2023-05-29T06:13:16;4.07;;;1.30;;
59239;SDS011;45010;53.640;10.578;2023-05-29T06:16:17;7.50;;;1.80;;
59239;SDS011;45010;53.640;10.578;2023-05-29T06:19:17;10.95;;;2.88;;
59239;SDS011;45010;53.640;10.578;2023-05-29T06:22:18;5.80;;;1.80;;
59239;SDS011;45010;53.640;10.578;2023-05-29T06:25:19;4.50;;;1.52;;
59239;SDS011;45010;53.640;10.578;2023-05-29T06:28:19;5.75;;;1.40;;
59239;SDS011;45010;53.640;10.578;2023-05-29T06:31:20;6.07;;;1.50;;
59239;SDS011;45010;53.640;10.578;2023-05-29T06:34:20;3.17;;;1.27;;
59239;SDS011;45010;53.640;10.578;2023-05-29T06:37:21;7.53;;;2.60;;
59239;SDS011;45010;53.640;10.578;2023-05-29T06:40:21;7.00;;;1.63;;
59239;SDS011;45010;53.640;10.578;2023-05-29T06:43:22;4.65;;;1.42;;
59239;SDS011;45010;53.640;10.578;2023-05-29T06:46:22;4.60;;;1.73;;
59239;SDS011;45010;53.640;10.578;2023-05-29T06:49:23;10.13;;;1.63;;
59239;SDS011;45010;53.640;10.578;2023-05-29T06:52:23;4.40;;;1.40;;
59239;SDS011;45010;53.640;10.578;2023-05-29T06:55:23;7.18;;;1.20;;
59239;SDS011;45010;53.640;10.578;2023-05-29T06:58:23;5.63;;;1.50;;
59239;SDS011;45010;53.640;10.578;2023-05-29T07:01:24;5.93;;;1.40;;
59239;SDS011;45010;53.640;10.578;2023-05-29T07:04:25;5.80;;;1.77;;
59239;SDS011;45010;53.640;10.578;2023-05-29T07:07:26;5.07;;;1.50;;
59239;SDS011;45010;53.640;10.578;2023-05-29T07:10:26;7.93;;;1.70;;
59239;SDS011;45010;53.640;10.578;2023-05-29T07:13:26;5.05;;;1.50;;
59239;SDS011;45010;53.640;10.578;2023-05-29T07:16:27;6.93;;;1.48;;
59239;SDS011;45010;53.640;10.578;2023-05-29T07:19:27;5.70;;;1.35;;
59239;SDS011;45010;53.640;10.578;2023-05-29T07:22:29;3.35;;;1.40;;
59239;SDS011;45010;53.640;10.578;2023-05-29T07:25:29;5.75;;;1.48;;
59239;SDS011;45010;53.640;10.578;2023-05-29T07:28:30;3.20;;;1.30;;
59239;SDS011;45010;53.640;10.578;2023-05-29T07:31:30;4.43;;;1.40;;
59239;SDS011;45010;53.640;10.578;2023-05-29T07:34:31;3.05;;;1.10;;
59239;SDS011;45010;53.640;10.578;2023-05-29T07:37:31;4.63;;;1.65;;
59239;SDS011;45010;53.640;10.578;2023-05-29T07:40:31;5.15;;;1.30;;
59239;SDS011;45010;53.640;10.578;2023-05-29T07:43:32;6.15;;;1.63;;
59239;SDS011;45010;53.640;10.578;2023-05-29T07:46:32;6.50;;;1.95;;
59239;SDS011;45010;53.640;10.578;2023-05-29T07:49:32;7.55;;;2.30;;
59239;SDS011;45010;53.640;10.578;2023-05-29T07:52:33;6.30;;;2.10;;
59239;SDS011;45010;53.640;10.578;2023-05-29T07:55:34;8.48;;;2.30;;
59239;SDS011;45010;53.640;10.578;2023-05-29T07:58:35;9.30;;;2.72;;
59239;SDS011;45010;53.640;10.578;2023-05-29T08:01:36;8.90;;;2.20;;
59239;SDS011;45010;53.640;10.578;2023-05-29T08:04:37;8.90;;;2.55;;
59239;SDS011;45010;53.640;10.578;2023-05-29T08:07:38;7.38;;;2.50;;
59239;SDS011;45010;53.640;10.578;2023-05-29T08:10:38;8.15;;;2.47;;
59239;SDS011;45010;53.640;10.578;2023-05-29T08:13:39;9.30;;;2.55;;
59239;SDS011;45010;53.640;10.578;2023-05-29T08:16:39;6.80;;;2.15;;
59239;SDS011;45010;53.640;10.578;2023-05-29T08:19:40;8.63;;;2.85;;
59239;SDS011;45010;53.640;10.578;2023-05-29T08:22:40;11.27;;;3.42;;
59239;SDS011;45010;53.640;10.578;2023-05-29T08:25:40;10.93;;;3.53;;
59239;SDS011;45010;53.640;10.578;2023-05-29T08:28:41;11.88;;;3.53;;
59239;SDS011;45010;53.640;10.578;2023-05-29T08:31:41;11.65;;;3.13;;
59239;SDS011;45010;53.640;10.578;2023-05-29T08:34:41;9.70;;;3.00;;
59239;SDS011;45010;53.640;10.578;2023-05-29T08:37:42;10.45;;;3.80;;
59239;SDS011;45010;53.640;10.578;2023-05-29T08:40:42;10.77;;;3.60;;
59239;SDS011;45010;53.640;10.578;2023-05-29T08:43:42;8.68;;;3.00;;
59239;SDS011;45010;53.640;10.578;2023-05-29T08:46:44;12.60;;;3.10;;
59239;SDS011;45010;53.640;10.578;2023-05-29T08:49:46;17.55;;;6.75;;
59239;SDS011;45010;53.640;10.578;2023-05-29T08:52:53;16.45;;;4.47;;
59239;SDS011;45010;53.640;10.578;2023-05-29T08:55:53;13.10;;;3.78;;
59239;SDS011;45010;53.640;10.578;2023-05-29T08:58:56;9.65;;;3.53;;
59239;SDS011;45010;53.640;10.578;2023-05-29T09:01:57;10.27;;;3.20;;
59239;SDS011;45010;53.640;10.578;2023-05-29T09:04:57;9.57;;;2.88;;
59239;SDS011;45010;53.640;10.578;2023-05-29T09:07:58;9.82;;;3.08;;
59239;SDS011;45010;53.640;10.578;2023-05-29T09:10:59;10.45;;;3.33;;
59239;SDS011;45010;53.640;10.578;2023-05-29T09:13:59;11.13;;;3.22;;
59239;SDS011;45010;53.640;10.578;2023-05-29T09:17:00;10.73;;;3.15;;
59239;SDS011;45010;53.640;10.578;2023-05-29T09:20:00;7.78;;;2.80;;
59239;SDS011;45010;53.640;10.578;2023-05-29T09:23:06;13.00;;;2.88;;
59239;SDS011;45010;53.640;10.578;2023-05-29T09:26:08;13.23;;;3.08;;
59239;SDS011;45010;53.640;10.578;2023-05-29T09:29:14;11.90;;;2.95;;
59239;SDS011;45010;53.640;10.578;2023-05-29T09:32:16;8.93;;;2.90;;
59239;SDS011;45010;53.640;10.578;2023-05-29T09:35:18;10.73;;;2.65;;
59239;SDS011;45010;53.640;10.578;2023-05-29T09:38:19;7.25;;;2.85;;
59239;SDS011;45010;53.640;10.578;2023-05-29T09:41:20;9.75;;;2.90;;
59239;SDS011;45010;53.640;10.578;2023-05-29T09:44:24;8.30;;;2.58;;
59239;SDS011;45010;53.640;10.578;2023-05-29T09:47:28;10.45;;;2.75;;
59239;SDS011;45010;53.640;10.578;2023-05-29T09:50:33;9.00;;;3.00;;
59239;SDS011;45010;53.640;10.578;2023-05-29T09:53:34;9.52;;;2.90;;
59239;SDS011;45010;53.640;10.578;2023-05-29T09:56:43;9.80;;;2.67;;
59239;SDS011;45010;53.640;10.578;2023-05-29T09:59:44;5.55;;;1.88;;
59239;SDS011;45010;53.640;10.578;2023-05-29T10:02:47;8.32;;;2.65;;
59239;SDS011;45010;53.640;10.578;2023-05-29T10:05:52;6.22;;;2.47;;
59239;SDS011;45010;53.640;10.578;2023-05-29T10:08:56;8.65;;;2.20;;
59239;SDS011;45010;53.640;10.578;2023-05-29T10:11:58;6.10;;;2.22;;
59239;SDS011;45010;53.640;10.578;2023-05-29T10:15:02;7.97;;;2.60;;
59239;SDS011;45010;53.640;10.578;2023-05-29T10:18:06;6.90;;;2.35;;
59239;SDS011;45010;53.640;10.578;2023-05-29T10:21:21;5.50;;;2.17;;
59239;SDS011;45010;53.640;10.578;2023-05-29T10:24:22;5.80;;;2.30;;
59239;SDS011;45010;53.640;10.578;2023-05-29T10:27:22;6.20;;;2.22;;
59239;SDS011;45010;53.640;10.578;2023-05-29T10:34:02;4.75;;;2.10;;
59239;SDS011;45010;53.640;10.578;2023-05-29T10:40:40;4.18;;;2.10;;
59239;SDS011;45010;53.640;10.578;2023-05-29T10:43:40;6.55;;;2.53;;
59239;SDS011;45010;53.640;10.578;2023-05-29T10:49:51;6.65;;;1.67;;
59239;SDS011;45010;53.640;10.578;2023-05-29T10:52:51;5.40;;;2.33;;
59239;SDS011;45010;53.640;10.578;2023-05-29T10:55:52;7.45;;;2.13;;
59239;SDS011;45010;53.640;10.578;2023-05-29T10:58:54;4.78;;;1.70;;
59239;SDS011;45010;53.640;10.578;2023-05-29T11:01:55;6.45;;;1.92;;
59239;SDS011;45010;53.640;10.578;2023-05-29T11:05:17;8.23;;;1.98;;
59239;SDS011;45010;53.640;10.578;2023-05-29T11:08:17;6.72;;;1.63;;
59239;SDS011;45010;53.640;10.578;2023-05-29T11:11:38;7.28;;;1.90;;
59239;SDS011;45010;53.640;10.578;2023-05-29T11:14:44;4.97;;;1.67;;
59239;SDS011;45010;53.640;10.578;2023-05-29T11:17:46;6.50;;;1.90;;
59239;SDS011;45010;53.640;10.578;2023-05-29T11:20:50;5.43;;;2.00;;
59239;SDS011;45010;53.640;10.578;2023-05-29T11:24:03;3.15;;;1.63;;
59239;SDS011;45010;53.640;10.578;2023-05-29T11:27:06;5.90;;;2.25;;
59239;SDS011;45010;53.640;10.578;2023-05-29T11:30:08;6.13;;;2.33;;
59239;SDS011;45010;53.640;10.578;2023-05-29T11:33:08;5.80;;;1.83;;
59239;SDS011;45010;53.640;10.578;2023-05-29T11:36:32;9.13;;;1.98;;
59239;SDS011;45010;53.640;10.578;2023-05-29T11:39:36;6.03;;;2.00;;
59239;SDS011;45010;53.640;10.578;2023-05-29T11:42:41;3.85;;;1.60;;
59239;SDS011;45010;53.640;10.578;2023-05-29T11:45:45;7.45;;;1.98;;
59239;SDS011;45010;53.640;10.578;2023-05-29T11:48:46;6.38;;;1.77;;
59239;SDS011;45010;53.640;10.578;2023-05-29T11:51:47;10.38;;;1.92;;
59239;SDS011;45010;53.640;10.578;2023-05-29T11:54:47;7.22;;;2.15;;
59239;SDS011;45010;53.640;10.578;2023-05-29T11:57:49;6.30;;;1.67;;
59239;SDS011;45010;53.640;10.578;2023-05-29T12:00:51;6.10;;;2.22;;
59239;SDS011;45010;53.640;10.578;2023-05-29T12:03:52;6.40;;;1.88;;
59239;SDS011;45010;53.640;10.578;2023-05-29T12:06:53;6.18;;;1.75;;
59239;SDS011;45010;53.640;10.578;2023-05-29T12:09:53;4.72;;;2.17;;
59239;SDS011;45010;53.640;10.578;2023-05-29T12:12:58;6.95;;;2.20;;
59239;SDS011;45010;53.640;10.578;2023-05-29T12:16:01;7.07;;;1.80;;
59239;SDS011;45010;53.640;10.578;2023-05-29T12:19:04;6.38;;;2.08;;
59239;SDS011;45010;53.640;10.578;2023-05-29T12:22:04;4.85;;;1.70;;
59239;SDS011;45010;53.640;10.578;2023-05-29T12:25:06;4.70;;;1.77;;
59239;SDS011;45010;53.640;10.578;2023-05-29T12:28:07;5.35;;;1.60;;
59239;SDS011;45010;53.640;10.578;2023-05-29T12:31:08;3.38;;;1.27;;
59239;SDS011;45010;53.640;10.578;2023-05-29T12:34:08;5.90;;;1.90;;
59239;SDS011;45010;53.640;10.578;2023-05-29T12:37:11;4.32;;;1.65;;
59239;SDS011;45010;53.640;10.578;2023-05-29T12:40:14;5.80;;;1.70;;
59239;SDS011;45010;53.640;10.578;2023-05-29T12:43:16;5.40;;;1.88;;
59239;SDS011;45010;53.640;10.578;2023-05-29T12:46:16;4.78;;;1.70;;
59239;SDS011;45010;53.640;10.578;2023-05-29T12:49:17;7.97;;;2.22;;
59239;SDS011;45010;53.640;10.578;2023-05-29T12:52:23;3.13;;;1.33;;
59239;SDS011;45010;53.640;10.578;2023-05-29T12:55:24;5.72;;;1.92;;
59239;SDS011;45010;53.640;10.578;2023-05-29T12:58:25;4.68;;;1.95;;
59239;SDS011;45010;53.640;10.578;2023-05-29T13:01:26;5.45;;;1.90;;
59239;SDS011;45010;53.640;10.578;2023-05-29T13:04:26;4.13;;;1.60;;
59239;SDS011;45010;53.640;10.578;2023-05-29T13:07:27;3.88;;;1.40;;
59239;SDS011;45010;53.640;10.578;2023-05-29T13:10:28;5.10;;;1.90;;
59239;SDS011;45010;53.640;10.578;2023-05-29T13:13:28;8.57;;;1.90;;
59239;SDS011;45010;53.640;10.578;2023-05-29T13:16:28;10.13;;;2.05;;
59239;SDS011;45010;53.640;10.578;2023-05-29T13:19:29;7.40;;;2.28;;
59239;SDS011;45010;53.640;10.578;2023-05-29T13:22:29;10.32;;;1.73;;
59239;SDS011;45010;53.640;10.578;2023-05-29T13:25:31;6.55;;;1.80;;
59239;SDS011;45010;53.640;10.578;2023-05-29T13:28:32;4.40;;;1.60;;
59239;SDS011;45010;53.640;10.578;2023-05-29T13:31:32;7.68;;;1.58;;
59239;SDS011;45010;53.640;10.578;2023-05-29T13:34:33;7.90;;;1.60;;
59239;SDS011;45010;53.640;10.578;2023-05-29T13:37:33;6.15;;;1.80;;
59239;SDS011;45010;53.640;10.578;2023-05-29T13:40:36;4.85;;;1.58;;
59239;SDS011;45010;53.640;10.578;2023-05-29T13:43:36;4.10;;;1.45;;
59239;SDS011;45010;53.640;10.578;2023-05-29T13:46:37;5.72;;;1.40;;
59239;SDS011;45010;53.640;10.578;2023-05-29T13:49:37;5.05;;;1.23;;
59239;SDS011;45010;53.640;10.578;2023-05-29T13:52:38;4.35;;;1.25;;
59239;SDS011;45010;53.640;10.578;2023-05-29T13:55:38;3.10;;;1.40;;
59239;SDS011;45010;53.640;10.578;2023-05-29T13:58:38;5.32;;;1.88;;
59239;SDS011;45010;53.640;10.578;2023-05-29T14:01:39;5.57;;;1.60;;
59239;SDS011;45010;53.640;10.578;2023-05-29T14:04:39;5.05;;;1.77;;
59239;SDS011;45010;53.640;10.578;2023-05-29T14:07:39;2.20;;;1.30;;
59239;SDS011;45010;53.640;10.578;2023-05-29T14:10:40;4.63;;;1.33;;
59239;SDS011;45010;53.640;10.578;2023-05-29T14:13:40;3.50;;;1.77;;
59239;SDS011;45010;53.640;10.578;2023-05-29T14:16:40;3.88;;;1.40;;
59239;SDS011;45010;53.640;10.578;2023-05-29T14:19:40;2.88;;;1.50;;
59239;SDS011;45010;53.640;10.578;2023-05-29T14:22:41;4.38;;;1.73;;
59239;SDS011;45010;53.640;10.578;2023-05-29T14:25:41;5.97;;;1.83;;
59239;SDS011;45010;53.640;10.578;2023-05-29T14:28:42;6.60;;;1.98;;
59239;SDS011;45010;53.640;10.578;2023-05-29T14:31:43;11.63;;;2.17;;
59239;SDS011;45010;53.640;10.578;2023-05-29T14:34:43;6.20;;;2.15;;
59239;SDS011;45010;53.640;10.578;2023-05-29T14:37:45;4.13;;;2.00;;
59239;SDS011;45010;53.640;10.578;2023-05-29T14:40:45;5.10;;;1.83;;
59239;SDS011;45010;53.640;10.578;2023-05-29T14:43:45;5.43;;;1.85;;
59239;SDS011;45010;53.640;10.578;2023-05-29T14:46:46;8.88;;;1.88;;
59239;SDS011;45010;53.640;10.578;2023-05-29T14:49:46;10.07;;;3.05;;
59239;SDS011;45010;53.640;10.578;2023-05-29T14:52:46;5.65;;;2.30;;
59239;SDS011;45010;53.640;10.578;2023-05-29T14:55:48;4.13;;;1.98;;
59239;SDS011;45010;53.640;10.578;2023-05-29T14:58:48;5.10;;;1.80;;
59239;SDS011;45010;53.640;10.578;2023-05-29T15:01:49;5.28;;;1.48;;
59239;SDS011;45010;53.640;10.578;2023-05-29T15:04:49;4.57;;;2.15;;
59239;SDS011;45010;53.640;10.578;2023-05-29T15:07:49;4.75;;;1.60;;
59239;SDS011;45010;53.640;10.578;2023-05-29T15:10:50;3.67;;;1.60;;
59239;SDS011;45010;53.640;10.578;2023-05-29T15:13:50;6.10;;;1.90;;
59239;SDS011;45010;53.640;10.578;2023-05-29T15:16:51;4.20;;;1.90;;
59239;SDS011;45010;53.640;10.578;2023-05-29T15:19:51;4.82;;;1.90;;
59239;SDS011;45010;53.640;10.578;2023-05-29T15:22:52;4.93;;;1.73;;
59239;SDS011;45010;53.640;10.578;2023-05-29T15:25:53;3.92;;;1.90;;
59239;SDS011;45010;53.640;10.578;2023-05-29T15:28:53;7.50;;;1.83;;
59239;SDS011;45010;53.640;10.578;2023-05-29T15:31:54;3.40;;;1.73;;
59239;SDS011;45010;53.640;10.578;2023-05-29T15:34:54;4.65;;;1.65;;
59239;SDS011;45010;53.640;10.578;2023-05-29T15:37:55;4.50;;;1.98;;
59239;SDS011;45010;53.640;10.578;2023-05-29T15:40:55;7.07;;;1.50;;
59239;SDS011;45010;53.640;10.578;2023-05-29T15:43:55;6.68;;;2.42;;
59239;SDS011;45010;53.640;10.578;2023-05-29T15:46:56;6.60;;;2.70;;
59239;SDS011;45010;53.640;10.578;2023-05-29T15:49:57;7.78;;;2.42;;
59239;SDS011;45010;53.640;10.578;2023-05-29T15:52:58;7.95;;;2.30;;
59239;SDS011;45010;53.640;10.578;2023-05-29T15:55:58;4.95;;;2.17;;
59239;SDS011;45010;53.640;10.578;2023-05-29T15:58:58;11.73;;;3.25;;
59239;SDS011;45010;53.640;10.578;2023-05-29T16:01:59;7.50;;;5.45;;
59239;SDS011;45010;53.640;10.578;2023-05-29T16:05:00;12.95;;;8.18;;
59239;SDS011;45010;53.640;10.578;2023-05-29T16:08:00;14.57;;;6.75;;
59239;SDS011;45010;53.640;10.578;2023-05-29T16:11:01;9.85;;;6.13;;
59239;SDS011;45010;53.640;10.578;2023-05-29T16:14:03;12.15;;;6.90;;
59239;SDS011;45010;53.640;10.578;2023-05-29T16:17:04;12.48;;;7.00;;
59239;SDS011;45010;53.640;10.578;2023-05-29T16:20:05;13.07;;;5.63;;
59239;SDS011;45010;53.640;10.578;2023-05-29T16:23:05;8.18;;;4.68;;
59239;SDS011;45010;53.640;10.578;2023-05-29T16:26:05;9.32;;;4.72;;
59239;SDS011;45010;53.640;10.578;2023-05-29T16:29:06;12.63;;;4.80;;
59239;SDS011;45010;53.640;10.578;2023-05-29T16:32:06;9.10;;;4.10;;
59239;SDS011;45010;53.640;10.578;2023-05-29T16:35:07;6.72;;;3.45;;
59239;SDS011;45010;53.640;10.578;2023-05-29T16:38:08;7.28;;;3.15;;
59239;SDS011;45010;53.640;10.578;2023-05-29T16:41:08;8.98;;;3.40;;
59239;SDS011;45010;53.640;10.578;2023-05-29T16:44:08;8.48;;;3.17;;
59239;SDS011;45010;53.640;10.578;2023-05-29T16:47:09;10.73;;;3.67;;
59239;SDS011;45010;53.640;10.578;2023-05-29T16:50:09;7.10;;;3.13;;
59239;SDS011;45010;53.640;10.578;2023-05-29T16:53:10;6.72;;;2.70;;
59239;SDS011;45010;53.640;10.578;2023-05-29T16:56:10;7.03;;;2.58;;
59239;SDS011;45010;53.640;10.578;2023-05-29T16:59:11;6.63;;;3.10;;
59239;SDS011;45010;53.640;10.578;2023-05-29T17:02:11;7.45;;;2.65;;
59239;SDS011;45010;53.640;10.578;2023-05-29T17:05:12;4.47;;;2.05;;
59239;SDS011;45010;53.640;10.578;2023-05-29T17:08:12;4.50;;;2.20;;
59239;SDS011;45010;53.640;10.578;2023-05-29T17:11:13;5.07;;;2.30;;
59239;SDS011;45010;53.640;10.578;2023-05-29T17:14:13;7.90;;;2.17;;
59239;SDS011;45010;53.640;10.578;2023-05-29T17:17:14;5.82;;;2.38;;
59239;SDS011;45010;53.640;10.578;2023-05-29T17:20:14;5.00;;;2.15;;
59239;SDS011;45010;53.640;10.578;2023-05-29T17:23:16;7.65;;;2.28;;
59239;SDS011;45010;53.640;10.578;2023-05-29T17:26:16;7.57;;;2.30;;
59239;SDS011;45010;53.640;10.578;2023-05-29T17:29:16;7.70;;;2.10;;
59239;SDS011;45010;53.640;10.578;2023-05-29T17:32:17;6.07;;;2.03;;
59239;SDS011;45010;53.640;10.578;2023-05-29T17:35:17;5.65;;;2.13;;
59239;SDS011;45010;53.640;10.578;2023-05-29T17:38:18;4.15;;;1.92;;
59239;SDS011;45010;53.640;10.578;2023-05-29T17:41:18;6.35;;;2.20;;
59239;SDS011;45010;53.640;10.578;2023-05-29T17:44:18;5.80;;;2.17;;
59239;SDS011;45010;53.640;10.578;2023-05-29T17:47:19;5.22;;;1.75;;
59239;SDS011;45010;53.640;10.578;2023-05-29T17:50:19;5.30;;;2.00;;
59239;SDS011;45010;53.640;10.578;2023-05-29T17:53:20;5.65;;;1.80;;
59239;SDS011;45010;53.640;10.578;2023-05-29T17:56:21;3.20;;;1.73;;
59239;SDS011;45010;53.640;10.578;2023-05-29T17:59:22;4.85;;;2.10;;
59239;SDS011;45010;53.640;10.578;2023-05-29T18:02:22;5.45;;;1.75;;
59239;SDS011;45010;53.640;10.578;2023-05-29T18:05:22;10.75;;;2.10;;
59239;SDS011;45010;53.640;10.578;2023-05-29T18:08:23;5.53;;;2.13;;
59239;SDS011;45010;53.640;10.578;2023-05-29T18:11:23;6.22;;;1.80;;